DuBois Regional Airport
KDUJ : now visible

Airfield :











YOU CAN JOIN US ON...

 
LOGIN :

Register | Disclaimer

   EN    FR    IT 

 









Legend :    VFR   Marginal VFR   IFR   Intensive IFR   Very Intensive IFR
Visi :
Ceiling :
>= 8 km
>= 3000ft
5 to 8 km
1000 to 3000 ft
1500m to 5 km
500 to 1000 ft
800 to 1500m
200 to 500 ft
< 800m
< 200 ft
Symbols :   Thunderstorms  Fog  Heavy snow  Heavy precipitations  Wind > 20 kt






- Airport Elevation : 1817 ft
- IATA code : DUJ


KDUJ - DuBois Regional

CURRENT METAR :
  • 232253Z AUTO 00000KT 10SM FEW014 BKN020 BKN027 07/06 A3001 RMK AO2 RAE2159B20E30 SLP169 P0001 T00670056

EXPIRED METARs :
  • 232217Z AUTO 25004KT 7SM SCT020 OVC027 07/06 A3000 RMK AO2 RAE2159 P0001 T00720056
  • 232153Z AUTO 27004KT 6SM -RA BR BKN031 BKN039 08/06 A2999 RMK AO2 RAB48 SLP161 P0000 T00780061
  • 232138Z AUTO 28004KT 10SM FEW015 SCT028 BKN038 08/06 A2999 RMK AO2 T00780056
  • 232114Z AUTO 28005KT 10SM BKN019 BKN027 OVC035 08/06 A2998 RMK AO2 T00830056
  • 232106Z AUTO 27004KT 10SM SCT019 SCT023 OVC035 08/06 A2998 RMK AO2 T00830056
  • 232053Z AUTO 27005KT 10SM SCT019 BKN028 OVC035 08/06 A2998 RMK AO2 RAB33E52 SLP159 P0001 60001 T00780056 53005
  • 232038Z AUTO 27006KT 6SM -RA SCT021 BKN028 OVC037 08/05 A2998 RMK AO2 RAB33 P0001 T00780050

TAF KDUJ
Valid from the 24 at 00:00 until the 25 at 00:00 UTC


232331Z 2400/2424 26004KT P6SM BKN060
FM241100 16003KT P6SM BKN035
FM241600 17005KT P6SM OVC025
FM242000 14005KT 4SM -RA BR OVC009
KZOB FIR / North America



MET'MAP, your aeronautical weather chart ! - Copyright ORBIFLY December 2007 - Disclaimer

ORBIFLY MET'MAP TEAM :

Programming & Development : Alexandra Zaïnal
Concept & original design : Baudouin d'Aumeries
Assistance for programming : Marc-Olivier Méhu
Technical & hardware support : Manuel Goepfert

Contact : metmap@orbifly.com




SOURCES & CREDITS :

   NOAA       Earth
Advisory